Time;durP1;ratioP1;P1;durP2;ratioP2;P2;SDS_P1;SDS_P2;PMS_P1;PMS_P2;Temp;Humidity;BMP_temperature;BMP_pressure;BME280_temperature;BME280_humidity;BME280_pressure;Samples;Min_cycle;Max_cycle;Signal;HPM_P1;HPM_P2
2024/01/25 00:02:09;;;;;;;67.97;19.05;;;;;;;6.32;100.00;101607.31;5066476;28;20049;-56
2024/01/25 00:04:36;;;;;;;62.92;21.00;;;;;;;6.31;100.00;101594.69;5067587;28;20060;-54
2024/01/25 00:07:04;;;;;;;55.00;19.23;;;;;;;6.30;100.00;101597.75;5061475;28;20049;-48
2024/01/25 00:09:31;;;;;;;55.10;14.57;;;;;;;6.30;100.00;101587.53;5051021;28;20053;-53
2024/01/25 00:11:59;;;;;;;45.40;14.10;;;;;;;6.29;100.00;101588.66;5061463;28;20563;-47
2024/01/25 00:14:26;;;;;;;52.38;13.40;;;;;;;6.30;100.00;101581.25;5059197;28;20059;-50
2024/01/25 00:16:53;;;;;;;35.00;13.52;;;;;;;6.29;100.00;101576.84;5062019;28;20702;-47
2024/01/25 00:19:21;;;;;;;36.33;11.63;;;;;;;6.29;100.00;101563.91;5067232;28;20040;-50
2024/01/25 00:21:48;;;;;;;33.47;9.05;;;;;;;6.28;100.00;101556.78;5065073;28;20045;-51
2024/01/25 00:24:16;;;;;;;29.63;9.40;;;;;;;6.28;100.00;101554.03;5055650;28;20045;-53
2024/01/25 00:26:43;;;;;;;24.27;8.02;;;;;;;6.28;100.00;101551.28;5067058;28;20059;-50
2024/01/25 00:29:10;;;;;;;37.78;7.95;;;;;;;6.27;100.00;101529.59;5065425;28;20505;-48
2024/01/25 00:31:38;;;;;;;27.73;6.93;;;;;;;6.27;100.00;101518.59;5058546;28;20049;-52
2024/01/25 00:34:05;;;;;;;20.00;6.20;;;;;;;6.27;100.00;101519.41;5062692;28;20529;-50
2024/01/25 00:36:34;;;;;;;19.80;5.10;;;;;;;6.27;100.00;101516.66;5067117;28;20045;-51
2024/01/25 00:39:03;;;;;;;16.95;5.30;;;;;;;6.25;100.00;101507.06;5053863;28;20037;-48
2024/01/25 00:41:32;;;;;;;29.38;7.18;;;;;;;6.25;100.00;101496.88;5066472;28;20040;-50
2024/01/25 00:43:59;;;;;;;37.03;6.28;;;;;;;6.25;100.00;101491.38;5066632;28;20040;-47
2024/01/25 00:46:27;;;;;;;21.25;4.55;;;;;;;6.25;100.00;101483.13;5048176;28;20563;-48
2024/01/25 00:48:54;;;;;;;26.08;5.53;;;;;;;6.25;100.00;101485.88;5065203;28;20040;-53
2024/01/25 00:51:23;;;;;;;27.85;7.88;;;;;;;6.25;100.00;101474.06;5057116;28;20071;-53
2024/01/25 00:53:50;;;;;;;25.70;6.20;;;;;;;6.24;100.00;101467.75;5066566;28;20055;-50
2024/01/25 00:56:18;;;;;;;34.45;5.80;;;;;;;6.23;100.00;101468.84;5066278;28;20048;-50
2024/01/25 00:58:45;;;;;;;26.67;5.00;;;;;;;6.23;100.00;101468.84;5067163;28;20657;-50
2024/01/25 01:01:13;;;;;;;24.48;4.78;;;;;;;6.23;100.00;101455.13;5066520;28;20090;-49
2024/01/25 01:03:41;;;;;;;25.73;5.53;;;;;;;6.25;100.00;101458.38;5066330;28;20075;-55
2024/01/25 01:06:09;;;;;;;26.85;5.32;;;;;;;6.28;100.00;101452.28;5066591;28;20052;-50
2024/01/25 01:08:37;;;;;;;24.38;4.85;;;;;;;6.32;100.00;101458.81;5066029;28;20394;-52
2024/01/25 01:11:06;;;;;;;31.75;5.95;;;;;;;6.34;100.00;101453.84;5059309;28;20065;-52
2024/01/25 01:13:34;;;;;;;27.92;7.68;;;;;;;6.39;100.00;101459.25;5064166;28;20582;-50
2024/01/25 01:16:01;;;;;;;29.25;8.07;;;;;;;6.43;100.00;101457.56;5057248;28;20051;-49
2024/01/25 01:18:28;;;;;;;27.88;7.65;;;;;;;6.48;100.00;101459.41;5066128;28;20040;-49
2024/01/25 01:20:56;;;;;;;30.77;6.05;;;;;;;6.52;100.00;101457.66;5066208;28;20048;-52
2024/01/25 01:23:23;;;;;;;29.00;8.98;;;;;;;6.56;100.00;101448.53;5066029;28;20497;-49
2024/01/25 01:25:51;;;;;;;23.55;6.80;;;;;;;6.58;100.00;101446.28;5066367;28;20063;-50
2024/01/25 01:28:18;;;;;;;23.75;6.85;;;;;;;6.61;100.00;101433.88;5066278;28;20406;-51
2024/01/25 01:30:46;;;;;;;24.90;7.85;;;;;;;6.64;100.00;101439.59;5064337;28;20382;-51
2024/01/25 01:33:13;;;;;;;33.85;7.45;;;;;;;6.66;100.00;101436.53;5066321;28;20510;-53
2024/01/25 01:35:41;;;;;;;28.90;8.27;;;;;;;6.69;100.00;101436.75;5065979;28;20049;-52
2024/01/25 01:38:09;;;;;;;35.40;7.57;;;;;;;6.69;100.00;101428.50;5065978;28;20406;-52
2024/01/25 01:40:36;;;;;;;26.55;6.93;;;;;;;6.71;100.00;101433.69;5065673;28;20055;-49
2024/01/25 01:43:04;;;;;;;22.42;6.43;;;;;;;6.73;100.00;101436.94;5065129;28;20048;-50
2024/01/25 01:45:31;;;;;;;36.55;7.35;;;;;;;6.74;100.00;101428.38;5065705;28;20584;-49
2024/01/25 01:47:59;;;;;;;30.45;7.72;;;;;;;6.77;100.00;101432.47;5063388;28;20490;-48
2024/01/25 01:50:27;;;;;;;24.80;7.95;;;;;;;6.79;100.00;101443.16;5063042;28;20059;-48
2024/01/25 01:52:54;;;;;;;27.50;8.15;;;;;;;6.80;100.00;101436.56;5062345;28;20040;-48
2024/01/25 01:55:23;;;;;;;31.73;8.93;;;;;;;6.80;100.00;101442.06;5061902;28;20047;-51
2024/01/25 01:57:52;;;;;;;37.58;10.93;;;;;;;6.80;100.00;101425.53;5066004;28;20056;-49
2024/01/25 02:00:20;;;;;;;31.73;10.02;;;;;;;6.80;100.00;101431.88;5065705;28;20044;-48
2024/01/25 02:02:48;;;;;;;50.67;12.02;;;;;;;6.81;100.00;101421.66;5056382;28;20057;-49
2024/01/25 02:05:16;;;;;;;31.60;10.38;;;;;;;6.81;100.00;101421.66;5063826;28;20052;-51
2024/01/25 02:07:44;;;;;;;45.20;11.68;;;;;;;6.82;100.00;101406.78;5064562;28;20044;-49
2024/01/25 02:10:11;;;;;;;47.92;12.63;;;;;;;6.81;100.00;101394.94;5064284;28;20490;-50
2024/01/25 02:12:38;;;;;;;42.03;13.25;;;;;;;6.82;100.00;101371.00;5065788;28;20453;-49
2024/01/25 02:15:07;;;;;;;47.65;11.40;;;;;;;6.84;100.00;101377.00;5065090;28;20048;-48
2024/01/25 02:17:34;;;;;;;35.13;12.07;;;;;;;6.86;100.00;101377.56;5066040;28;20051;-50
2024/01/25 02:20:03;;;;;;;45.55;10.48;;;;;;;6.87;100.00;101362.66;5052656;28;20055;-46
2024/01/25 02:22:30;;;;;;;49.28;15.05;;;;;;;6.88;100.00;101356.03;5065214;28;20056;-47
2024/01/25 02:24:58;;;;;;;34.88;10.45;;;;;;;6.90;100.00;101353.78;5046738;28;20041;-51
2024/01/25 02:27:25;;;;;;;41.75;9.93;;;;;;;6.93;100.00;101339.41;5049238;28;20057;-46
2024/01/25 02:29:53;;;;;;;36.80;11.35;;;;;;;6.94;100.00;101336.34;5065825;28;20086;-51
2024/01/25 02:32:20;;;;;;;37.40;8.43;;;;;;;6.97;100.00;101343.16;5064348;28;20410;-49
2024/01/25 02:34:47;;;;;;;34.45;9.88;;;;;;;6.98;100.00;101339.31;5053531;28;20502;-47
2024/01/25 02:37:15;;;;;;;33.78;9.07;;;;;;;7.00;100.00;101326.03;5065547;28;20041;-47
2024/01/25 02:39:43;;;;;;;51.92;12.13;;;;;;;7.00;100.00;101309.53;5065366;28;20045;-49
2024/01/25 02:42:10;;;;;;;47.53;13.18;;;;;;;7.01;100.00;101316.69;5064629;28;20589;-50
2024/01/25 02:44:38;;;;;;;52.88;10.13;;;;;;;7.02;100.00;101318.28;5054698;28;20063;-51
2024/01/25 02:47:05;;;;;;;38.53;9.48;;;;;;;7.02;100.00;101304.53;5046906;28;20036;-51
2024/01/25 02:49:32;;;;;;;32.25;9.48;;;;;;;7.03;100.00;101301.47;5061821;28;20036;-49
2024/01/25 02:52:00;;;;;;;39.20;9.80;;;;;;;7.05;100.00;101295.66;5052383;28;20048;-48
2024/01/25 02:54:28;;;;;;;43.03;10.57;;;;;;;7.07;100.00;101294.22;5068347;28;20048;-47
2024/01/25 02:56:55;;;;;;;52.92;12.55;;;;;;;7.09;100.00;101285.66;5055227;28;20040;-52
2024/01/25 02:59:22;;;;;;;39.90;8.95;;;;;;;7.10;100.00;101282.59;5068874;28;20051;-47
2024/01/25 03:01:50;;;;;;;35.65;7.28;;;;;;;7.14;100.00;101277.28;5140887;22;20064;-47
2024/01/25 03:04:18;;;;;;;35.97;7.88;;;;;;;7.16;100.00;101264.84;5027538;28;20053;-52
2024/01/25 03:06:46;;;;;;;31.80;6.55;;;;;;;7.20;100.00;101256.78;5028736;28;20561;-48
2024/01/25 03:09:14;;;;;;;27.08;7.35;;;;;;;7.22;100.00;101258.09;5048588;28;20057;-54
2024/01/25 03:11:42;;;;;;;26.15;5.82;;;;;;;7.24;100.00;101244.84;5030786;28;20056;-49
2024/01/25 03:14:09;;;;;;;19.35;5.45;;;;;;;7.28;100.00;101234.03;5048295;28;20053;-51
2024/01/25 03:16:36;;;;;;;24.00;6.20;;;;;;;7.31;100.00;101234.19;5047944;28;20406;-52
2024/01/25 03:19:04;;;;;;;22.80;5.68;;;;;;;7.34;100.00;101216.22;5047718;28;20558;-47
2024/01/25 03:21:31;;;;;;;15.98;5.03;;;;;;;7.34;100.00;101211.53;5047091;28;20044;-49
2024/01/25 03:23:59;;;;;;;22.65;4.85;;;;;;;7.35;100.00;101217.88;5048156;28;20429;-50
2024/01/25 03:26:29;;;;;;;24.52;4.55;;;;;;;7.37;100.00;101215.59;5046018;28;20687;-47
2024/01/25 03:28:56;;;;;;;13.68;5.40;;;;;;;7.39;100.00;101223.56;5047991;28;20049;-54
2024/01/25 03:31:23;;;;;;;9.50;2.42;;;;;;;7.41;100.00;101216.63;5045514;28;20041;-49
2024/01/25 03:33:51;;;;;;;7.25;1.88;;;;;;;7.47;100.00;101209.03;5047826;28;20052;-52
2024/01/25 03:36:18;;;;;;;5.18;1.30;;;;;;;7.52;100.00;101206.19;5047393;28;20052;-50
2024/01/25 03:38:45;;;;;;;3.08;0.60;;;;;;;7.57;100.00;101198.56;5048018;28;20116;-51
2024/01/25 03:41:13;;;;;;;2.83;0.75;;;;;;;7.60;100.00;101181.41;5029846;28;20568;-52
2024/01/25 03:43:40;;;;;;;0.80;0.28;;;;;;;7.63;100.00;101175.28;5048060;28;20045;-51
2024/01/25 03:46:12;;;;;;;0.65;0.32;;;;;;;7.68;100.00;101171.56;5038028;28;20446;-50
2024/01/25 03:48:42;;;;;;;0.40;0.20;;;;;;;7.75;100.00;101178.28;5047948;28;20060;-50
2024/01/25 03:51:09;;;;;;;0.10;0.10;;;;;;;7.79;100.00;101178.44;5047051;28;20044;-52
2024/01/25 03:53:36;;;;;;;1.25;0.60;;;;;;;7.82;100.00;101178.63;5041602;28;20450;-54
2024/01/25 03:56:10;;;;;;;0.10;0.10;;;;;;;7.86;100.00;101174.09;5047244;28;20052;-53
2024/01/25 03:58:39;;;;;;;0.17;0.10;;;;;;;7.88;100.00;101176.56;5048791;28;20164;-53
2024/01/25 04:01:07;;;;;;;0.15;0.00;;;;;;;7.89;100.00;101167.13;5047119;28;20887;-48
2024/01/25 04:03:34;;;;;;;0.40;0.08;;;;;;;7.90;100.00;101158.56;5047700;28;20079;-52
2024/01/25 04:06:02;;;;;;;0.10;0.10;;;;;;;7.94;100.00;101162.31;5047034;28;20518;-54
2024/01/25 04:08:30;;;;;;;0.20;0.00;;;;;;;7.96;100.00;101164.75;5045580;28;20059;-51
2024/01/25 04:10:58;;;;;;;0.65;0.13;;;;;;;7.97;100.00;101147.88;5040190;28;20055;-53
2024/01/25 04:13:25;;;;;;;0.00;0.00;;;;;;;7.98;100.00;101152.28;5045985;28;20040;-51
2024/01/25 04:15:53;;;;;;;1.35;0.10;;;;;;;7.99;100.00;101134.59;5046866;28;20695;-52
2024/01/25 04:18:20;;;;;;;0.85;0.80;;;;;;;8.03;100.00;101131.19;5046453;28;20506;-51
2024/01/25 04:20:50;;;;;;;1.20;0.77;;;;;;;8.03;100.00;101111.91;5046670;28;20072;-51
2024/01/25 04:23:18;;;;;;;3.17;1.42;;;;;;;8.04;100.00;101102.50;5046920;28;20573;-52
2024/01/25 04:25:45;;;;;;;6.28;3.20;;;;;;;8.05;100.00;101093.13;5047398;28;20067;-52
2024/01/25 04:28:13;;;;;;;10.93;5.60;;;;;;;8.05;100.00;101093.91;5046867;28;20037;-49
2024/01/25 04:30:40;;;;;;;14.63;5.45;;;;;;;8.05;100.00;101091.16;5042089;28;20059;-48
2024/01/25 04:33:08;;;;;;;16.65;7.10;;;;;;;8.05;100.00;101099.41;5046727;28;20582;-53
2024/01/25 04:35:35;;;;;;;10.50;4.65;;;;;;;8.05;100.00;101098.63;5046887;28;20499;-48
2024/01/25 04:38:03;;;;;;;6.35;2.72;;;;;;;8.06;100.00;101103.00;5046611;28;20061;-53
2024/01/25 04:40:30;;;;;;;5.90;3.40;;;;;;;8.04;100.00;101103.31;5047032;28;20041;-50
2024/01/25 04:42:58;;;;;;;2.83;1.88;;;;;;;8.03;100.00;101115.47;5046416;28;20506;-49
2024/01/25 04:45:26;;;;;;;2.60;1.42;;;;;;;8.04;100.00;101111.59;5046385;28;20037;-49
2024/01/25 04:47:53;;;;;;;0.50;0.50;;;;;;;8.04;100.00;101116.28;5030975;28;20045;-52
2024/01/25 04:50:20;;;;;;;0.50;0.50;;;;;;;8.04;100.00;101116.28;5042657;28;20573;-55
2024/01/25 04:52:48;;;;;;;0.55;0.40;;;;;;;8.04;100.00;101113.53;5046606;28;20053;-49
2024/01/25 04:55:15;;;;;;;1.45;1.33;;;;;;;8.01;100.00;101100.38;5046337;28;20056;-48
2024/01/25 04:57:43;;;;;;;2.53;1.08;;;;;;;8.01;100.00;101103.13;5028060;28;20410;-49
2024/01/25 05:00:11;;;;;;;2.97;1.73;;;;;;;7.98;100.00;101088.88;5045510;28;20052;-50
2024/01/25 05:02:39;;;;;;;3.05;2.30;;;;;;;7.96;100.00;101082.88;5045481;28;20053;-52
2024/01/25 05:05:06;;;;;;;4.55;2.50;;;;;;;7.93;100.00;101083.50;5046202;28;20049;-51
2024/01/25 05:07:34;;;;;;;5.45;2.70;;;;;;;7.90;100.00;101067.59;5045953;28;20044;-52
2024/01/25 05:10:18;;;;;;;7.53;3.55;;;;;;;7.89;100.00;101067.91;5045548;28;20025;-49
2024/01/25 05:12:46;;;;;;;8.65;4.38;;;;;;;7.87;100.00;101059.97;5044361;28;20045;-52
2024/01/25 05:15:13;;;;;;;12.48;5.45;;;;;;;7.84;100.00;101044.06;5042734;28;20379;-50
2024/01/25 05:17:41;;;;;;;8.45;3.80;;;;;;;7.82;100.00;101046.31;5046030;28;20052;-52
2024/01/25 05:20:08;;;;;;;6.20;3.30;;;;;;;7.81;100.00;101044.69;5042747;28;20405;-49
2024/01/25 05:22:40;;;;;;;7.57;3.78;;;;;;;7.79;100.00;101030.44;5045561;28;20045;-49
2024/01/25 05:25:08;;;;;;;8.77;2.92;;;;;;;7.79;100.00;101037.88;5028170;28;20037;-52
2024/01/25 05:27:36;;;;;;;6.78;3.05;;;;;;;7.77;100.00;101031.88;5033844;28;20060;-50
2024/01/25 05:30:04;;;;;;;7.20;2.45;;;;;;;7.77;100.00;101032.69;5045044;28;20666;-50
2024/01/25 05:32:32;;;;;;;5.10;2.00;;;;;;;7.77;100.00;101032.69;5042750;28;20053;-52
2024/01/25 05:34:59;;;;;;;4.35;2.30;;;;;;;7.77;100.00;101021.66;5035906;28;20533;-49
2024/01/25 05:37:27;;;;;;;11.13;3.03;;;;;;;7.76;100.00;101028.31;5042064;28;20048;-50
2024/01/25 05:40:00;;;;;;;6.50;2.25;;;;;;;7.76;100.00;101020.03;5035603;28;20057;-51
2024/01/25 05:42:28;;;;;;;9.07;2.60;;;;;;;7.77;100.00;101012.59;5044043;28;20401;-47
2024/01/25 05:44:55;;;;;;;10.57;2.75;;;;;;;7.77;100.00;101012.59;5035976;28;20047;-49
2024/01/25 05:47:23;;;;;;;10.77;3.08;;;;;;;7.77;100.00;100994.09;5031960;28;20033;-50
2024/01/25 05:49:51;;;;;;;9.68;3.05;;;;;;;7.78;100.00;101000.44;5045811;28;20053;-52
2024/01/25 05:52:20;;;;;;;11.55;3.80;;;;;;;7.78;100.00;100997.69;5045761;28;20529;-50
2024/01/25 05:54:48;;;;;;;10.93;3.30;;;;;;;7.77;100.00;100991.34;5027738;28;20084;-50
2024/01/25 05:57:15;;;;;;;11.30;5.05;;;;;;;7.78;100.00;100990.19;5034429;28;20041;-53
2024/01/25 05:59:43;;;;;;;7.03;2.72;;;;;;;7.81;100.00;100983.25;5039310;28;20053;-49
2024/01/25 06:02:11;;;;;;;10.48;3.05;;;;;;;7.82;100.00;100980.19;5045239;28;20056;-51
2024/01/25 06:04:39;;;;;;;7.88;3.40;;;;;;;7.84;100.00;100975.16;5045036;28;20053;-54
2024/01/25 06:07:06;;;;;;;22.23;4.57;;;;;;;7.86;100.00;100961.06;5046036;28;20052;-51
2024/01/25 06:09:34;;;;;;;6.57;2.30;;;;;;;7.88;100.00;100950.50;5044522;28;20057;-49
2024/01/25 06:12:03;;;;;;;8.60;2.72;;;;;;;7.89;100.00;100955.69;5035056;28;20045;-54
2024/01/25 06:14:31;;;;;;;9.15;2.28;;;;;;;7.91;100.00;100955.38;5043930;28;20063;-51
2024/01/25 06:16:58;;;;;;;6.65;2.10;;;;;;;7.93;100.00;100950.34;5045733;28;20049;-52
2024/01/25 06:19:25;;;;;;;14.20;2.70;;;;;;;7.95;100.00;100946.16;5044905;28;20051;-52
2024/01/25 06:21:53;;;;;;;10.55;2.88;;;;;;;7.97;100.00;100959.59;5045029;28;20048;-51
2024/01/25 06:24:20;;;;;;;9.52;2.10;;;;;;;7.99;100.00;100960.88;5045064;28;20048;-50
2024/01/25 06:26:47;;;;;;;5.95;1.23;;;;;;;8.06;100.00;100956.84;5045593;28;20533;-47
2024/01/25 06:29:15;;;;;;;4.00;0.60;;;;;;;8.14;100.00;100953.28;5048217;28;20048;-48
2024/01/25 06:31:43;;;;;;;0.80;0.40;;;;;;;8.26;100.00;100950.72;5048884;28;20388;-50
2024/01/25 06:34:11;;;;;;;2.03;0.30;;;;;;;8.37;100.00;100941.81;5044874;28;20048;-49
2024/01/25 06:36:39;;;;;;;1.40;0.30;;;;;;;8.49;100.00;100933.69;5049408;28;20398;-50
2024/01/25 06:39:06;;;;;;;2.15;0.30;;;;;;;8.61;100.00;100935.75;5047897;28;20037;-51
2024/01/25 06:41:34;;;;;;;1.95;0.40;;;;;;;8.72;100.00;100941.75;5048015;28;20078;-50
2024/01/25 06:44:01;;;;;;;0.47;0.20;;;;;;;8.79;100.00;100936.56;5049676;28;20048;-52
2024/01/25 06:46:28;;;;;;;1.38;0.22;;;;;;;8.84;100.00;100923.38;5048460;28;20496;-51
2024/01/25 06:48:56;;;;;;;2.30;0.40;;;;;;;8.94;100.00;100936.84;5049243;28;20513;-50
2024/01/25 06:51:24;;;;;;;3.67;0.50;;;;;;;9.02;100.00;100919.44;5047238;28;20049;-52
2024/01/25 06:53:51;;;;;;;1.45;0.20;;;;;;;9.07;100.00;100915.66;5031465;28;20056;-48
2024/01/25 06:56:18;;;;;;;0.93;0.30;;;;;;;9.08;100.00;100912.56;5040160;28;20060;-51
2024/01/25 06:58:46;;;;;;;4.80;0.57;;;;;;;9.11;100.00;100916.63;5048715;28;20041;-49
2024/01/25 07:01:20;;;;;;;2.28;0.50;;;;;;;9.15;100.00;100934.97;5048121;28;20401;-48
2024/01/25 07:03:52;;;;;;;2.10;0.30;;;;;;;9.23;100.00;100913.97;5048082;28;20059;-53
2024/01/25 07:06:20;;;;;;;2.20;0.20;;;;;;;9.25;100.00;100903.41;5047149;28;20049;-54
2024/01/25 07:08:47;;;;;;;1.77;0.35;;;;;;;9.28;100.00;100901.91;5048389;28;20049;-49
2024/01/25 07:11:16;;;;;;;0.60;0.30;;;;;;;9.31;100.00;100892.97;5042045;28;20041;-54
2024/01/25 07:13:44;;;;;;;2.55;0.30;;;;;;;9.32;100.00;100895.38;5048580;28;20056;-47
2024/01/25 07:16:11;;;;;;;1.65;0.30;;;;;;;9.33;100.00;100890.69;5047824;28;20048;-51
2024/01/25 07:18:39;;;;;;;2.75;0.30;;;;;;;9.34;100.00;100884.03;5043761;28;20044;-51
2024/01/25 07:21:06;;;;;;;1.10;0.30;;;;;;;9.35;100.00;100871.81;5047997;28;20041;-52
2024/01/25 07:23:34;;;;;;;1.90;0.20;;;;;;;9.41;100.00;100887.06;5048202;28;20040;-53
2024/01/25 07:26:01;;;;;;;0.68;0.15;;;;;;;9.45;100.00;100880.53;5046193;28;20049;-53
2024/01/25 07:28:29;;;;;;;0.40;0.30;;;;;;;9.46;100.00;100884.91;5047517;28;20552;-49
2024/01/25 07:30:56;;;;;;;0.57;0.20;;;;;;;9.46;100.00;100884.09;5047210;28;20056;-48
2024/01/25 07:33:24;;;;;;;1.20;0.03;;;;;;;9.48;100.00;100870.75;5047036;28;20064;-52
2024/01/25 07:35:51;;;;;;;1.98;0.40;;;;;;;9.49;100.00;100878.72;5047146;28;20103;-51
2024/01/25 07:38:18;;;;;;;0.20;0.10;;;;;;;9.50;100.00;100868.50;5047216;28;20056;-48
2024/01/25 07:40:46;;;;;;;2.78;0.20;;;;;;;9.50;100.00;100865.72;5046977;28;20057;-50
2024/01/25 07:43:13;;;;;;;0.90;0.20;;;;;;;9.52;100.00;100871.72;5048356;28;20045;-52
2024/01/25 07:45:41;;;;;;;2.38;0.30;;;;;;;9.53;100.00;100873.34;5047812;28;20056;-52
2024/01/25 07:48:08;;;;;;;0.65;0.30;;;;;;;9.54;100.00;100863.91;5047530;28;20053;-50
2024/01/25 07:50:42;;;;;;;3.15;0.10;;;;;;;9.57;100.00;100880.63;5047658;28;20056;-48
2024/01/25 07:53:12;;;;;;;1.92;0.35;;;;;;;9.60;100.00;100873.63;5048262;28;20534;-51
2024/01/25 07:55:39;;;;;;;1.10;0.15;;;;;;;9.60;100.00;100884.69;5047074;28;20045;-52
2024/01/25 07:58:06;;;;;;;2.00;0.30;;;;;;;9.62;100.00;100865.78;5047295;28;20053;-50
2024/01/25 08:00:34;;;;;;;1.92;0.30;;;;;;;9.66;100.00;100866.75;5047659;28;20273;-52
2024/01/25 08:03:01;;;;;;;0.55;0.20;;;;;;;9.67;100.00;100865.59;5048373;28;20056;-52
2024/01/25 08:05:29;;;;;;;0.65;0.50;;;;;;;9.69;100.00;100866.88;5047598;28;20052;-47
2024/01/25 08:08:11;;;;;;;4.75;2.13;;;;;;;9.70;100.00;100862.97;5047947;28;20044;-52
2024/01/25 08:10:39;;;;;;;1.38;0.25;;;;;;;9.70;100.00;100884.28;5041181;28;20049;-49
2024/01/25 08:13:06;;;;;;;1.30;0.20;;;;;;;9.71;100.00;100863.78;5046991;28;21490;-48
2024/01/25 08:15:35;;;;;;;0.65;0.30;;;;;;;9.73;100.00;100861.50;5047990;28;20048;-53
2024/01/25 08:18:03;;;;;;;1.35;0.20;;;;;;;9.74;100.00;100855.59;5044006;28;20446;-52
2024/01/25 08:20:31;;;;;;;0.28;0.20;;;;;;;9.74;100.00;100863.91;5035985;28;20053;-50
2024/01/25 08:22:59;;;;;;;3.40;0.70;;;;;;;9.76;100.00;100844.22;5043772;28;20567;-48
2024/01/25 08:25:26;;;;;;;1.75;0.40;;;;;;;9.77;100.00;100837.53;5042444;28;20049;-50
2024/01/25 08:27:54;;;;;;;0.30;0.30;;;;;;;9.78;100.00;100844.69;5047170;28;20053;-52
2024/01/25 08:30:21;;;;;;;2.25;0.15;;;;;;;9.78;100.00;100853.81;5046911;28;20044;-53
2024/01/25 08:32:49;;;;;;;0.40;0.30;;;;;;;9.80;100.00;100856.22;5045971;28;20045;-50
2024/01/25 08:35:16;;;;;;;0.98;0.20;;;;;;;9.81;100.00;100835.72;5045636;28;20083;-50
2024/01/25 08:37:44;;;;;;;0.90;0.40;;;;;;;9.82;100.00;100847.59;5047108;28;20052;-49
2024/01/25 08:40:12;;;;;;;1.20;0.20;;;;;;;9.82;100.00;100829.06;5027273;28;20049;-47
2024/01/25 08:42:39;;;;;;;0.35;0.13;;;;;;;9.84;100.00;100834.25;5023286;28;20139;-51
2024/01/25 08:45:08;;;;;;;0.88;0.30;;;;;;;9.86;100.00;100823.66;5046484;28;20140;-48
2024/01/25 08:47:36;;;;;;;1.63;0.40;;;;;;;9.88;100.00;100830.47;5034167;28;20048;-49
2024/01/25 08:50:10;;;;;;;0.35;0.22;;;;;;;9.89;100.00;100831.28;5046632;28;20053;-52
2024/01/25 08:52:38;;;;;;;3.60;0.30;;;;;;;9.89;100.00;100832.09;5047041;28;20048;-48
2024/01/25 08:55:05;;;;;;;1.98;0.60;;;;;;;9.90;100.00;100827.38;5046588;28;20061;-47
2024/01/25 08:57:33;;;;;;;4.00;0.30;;;;;;;9.91;100.00;100835.31;5045935;28;20051;-50
2024/01/25 09:00:00;;;;;;;1.23;0.80;;;;;;;9.93;100.00;100829.47;5047115;28;20056;-51
2024/01/25 09:02:29;;;;;;;2.28;0.30;;;;;;;9.97;100.00;100822.09;5044540;28;20052;-51
2024/01/25 09:04:57;;;;;;;1.38;0.28;;;;;;;9.99;100.00;100830.84;5046697;28;20583;-49
2024/01/25 09:07:25;;;;;;;0.65;0.25;;;;;;;10.01;100.00;100823.84;5046675;28;20052;-51
2024/01/25 09:09:52;;;;;;;2.53;0.68;;;;;;;10.05;100.00;100812.91;5036502;28;20060;-53
2024/01/25 09:12:20;;;;;;;2.47;0.30;;;;;;;10.06;100.00;100803.47;5046562;28;20057;-55
2024/01/25 09:14:47;;;;;;;3.42;0.40;;;;;;;10.07;100.00;100814.19;5046415;28;20048;-52
2024/01/25 09:17:21;;;;;;;0.95;0.30;;;;;;;10.11;100.00;100809.56;5046560;28;20048;-51
2024/01/25 09:19:52;;;;;;;3.75;0.50;;;;;;;10.15;100.00;100813.31;5046343;28;20052;-48
2024/01/25 09:22:20;;;;;;;1.13;0.20;;;;;;;10.16;100.00;100809.41;5034684;28;20045;-52
2024/01/25 09:24:48;;;;;;;4.45;0.30;;;;;;;10.20;100.00;100804.81;5045335;28;20455;-47
2024/01/25 09:27:15;;;;;;;4.55;0.38;;;;;;;10.23;100.00;100797.78;5046233;28;20490;-49
2024/01/25 09:29:43;;;;;;;2.95;0.40;;;;;;;10.25;100.00;100799.06;5045190;28;20140;-51
2024/01/25 09:32:11;;;;;;;1.05;0.50;;;;;;;10.26;100.00;100792.38;5045986;28;20041;-50
2024/01/25 09:34:38;;;;;;;2.25;0.50;;;;;;;10.30;100.00;100790.53;5046128;28;20565;-53
2024/01/25 09:37:07;;;;;;;3.05;0.45;;;;;;;10.33;100.00;100792.63;5046123;28;20057;-53
2024/01/25 09:39:35;;;;;;;4.70;0.60;;;;;;;10.34;100.00;100794.25;5032918;28;20083;-50
2024/01/25 09:42:04;;;;;;;1.90;0.45;;;;;;;10.37;100.00;100781.69;5045955;28;20052;-53
2024/01/25 09:44:32;;;;;;;3.40;0.63;;;;;;;10.38;100.00;100778.56;5046175;28;20041;-52
2024/01/25 09:47:05;;;;;;;1.45;0.30;;;;;;;10.41;100.00;100771.53;5033102;28;20049;-49
2024/01/25 09:49:33;;;;;;;2.38;0.43;;;;;;;10.47;100.00;100777.66;5046096;28;20048;-49
2024/01/25 09:52:05;;;;;;;3.60;0.50;;;;;;;10.48;100.00;100773.75;5032837;28;20053;-52
2024/01/25 09:54:36;;;;;;;1.10;0.30;;;;;;;10.50;100.00;100769.47;5045682;28;20407;-48
2024/01/25 09:57:08;;;;;;;2.13;0.38;;;;;;;10.51;100.00;100764.75;5045361;28;20060;-50
2024/01/25 09:59:35;;;;;;;2.05;0.55;;;;;;;10.55;100.00;100776.75;5038856;28;20045;-51
2024/01/25 10:02:04;;;;;;;2.33;0.50;;;;;;;10.57;100.00;100764.19;5040760;28;20045;-50
2024/01/25 10:04:31;;;;;;;0.90;0.20;;;;;;;10.61;100.00;100778.16;5041920;28;20064;-51
2024/01/25 10:06:59;;;;;;;3.85;0.55;;;;;;;10.67;100.00;100766.47;5036525;28;20052;-48
2024/01/25 10:09:27;;;;;;;2.72;0.30;;;;;;;10.70;100.00;100753.91;5049778;28;20053;-50
2024/01/25 10:11:54;;;;;;;2.67;0.43;;;;;;;10.74;100.00;100758.44;5049543;28;20049;-51
2024/01/25 10:14:42;;;;;;;4.38;0.55;;;;;;;10.76;100.00;100766.38;5049708;28;20040;-51
2024/01/25 10:17:10;;;;;;;1.80;0.30;;;;;;;10.81;100.00;100764.19;5039780;28;20079;-50
2024/01/25 10:19:38;;;;;;;3.80;0.63;;;;;;;10.84;100.00;100765.47;5042581;28;20053;-49
2024/01/25 10:22:08;;;;;;;1.73;0.80;;;;;;;10.87;100.00;100762.00;5040699;28;20045;-51
2024/01/25 10:24:37;;;;;;;2.45;0.60;;;;;;;10.87;100.00;100762.00;5049636;28;20679;-49
2024/01/25 10:27:04;;;;;;;1.40;0.30;;;;;;;10.90;100.00;100777.94;5049852;28;20056;-49
2024/01/25 10:29:32;;;;;;;4.45;0.55;;;;;;;10.90;100.00;100769.63;5018119;28;20390;-50
2024/01/25 10:32:01;;;;;;;4.80;0.50;;;;;;;10.91;100.00;100783.09;5032162;28;20438;-52
2024/01/25 10:34:29;;;;;;;3.50;0.70;;;;;;;10.92;100.00;100781.16;5049656;28;20053;-54
2024/01/25 10:36:57;;;;;;;2.80;0.70;;;;;;;10.93;100.00;100766.16;5047632;28;20537;-54
2024/01/25 10:39:25;;;;;;;4.35;0.63;;;;;;;10.95;100.00;100772.97;5031183;28;20584;-49
2024/01/25 10:41:53;;;;;;;2.83;0.50;;;;;;;10.97;100.00;100775.38;5049814;28;20087;-49
2024/01/25 10:44:21;;;;;;;2.97;0.80;;;;;;;10.98;100.00;100763.16;5049559;28;20041;-51
2024/01/25 10:46:49;;;;;;;4.55;0.70;;;;;;;11.01;100.00;100771.56;5040697;28;20049;-56
2024/01/25 10:49:17;;;;;;;1.90;0.50;;;;;;;11.04;100.00;100755.41;5048823;28;20048;-51
2024/01/25 10:51:46;;;;;;;1.75;0.40;;;;;;;11.05;100.00;100755.06;5048866;28;20048;-52
2024/01/25 10:54:14;;;;;;;1.98;0.90;;;;;;;11.07;100.00;100744.44;5047601;28;20048;-54
2024/01/25 10:56:42;;;;;;;4.47;0.95;;;;;;;11.09;100.00;100753.22;5045937;28;20081;-51
2024/01/25 10:59:13;;;;;;;2.05;0.50;;;;;;;11.09;100.00;100761.53;5041150;28;20040;-52
2024/01/25 11:01:45;;;;;;;0.38;0.38;;;;;;;11.10;100.00;100749.28;5044664;28;20061;-51
2024/01/25 11:04:18;;;;;;;3.80;0.40;;;;;;;11.13;100.00;100754.13;5023974;28;20690;-53
2024/01/25 11:06:46;;;;;;;1.05;0.17;;;;;;;11.18;100.00;100744.75;5042517;28;20049;-50
2024/01/25 11:09:19;;;;;;;1.85;0.40;;;;;;;11.19;100.00;100743.63;5038577;28;20411;-51
2024/01/25 11:11:48;;;;;;;0.77;0.40;;;;;;;11.21;100.00;100739.34;5038625;28;20459;-50
2024/01/25 11:14:18;;;;;;;1.90;0.30;;;;;;;11.25;100.00;100733.91;5048801;28;20686;-53
2024/01/25 11:16:47;;;;;;;1.77;0.43;;;;;;;11.27;100.00;100743.50;5048495;28;20045;-52
2024/01/25 11:19:19;;;;;;;0.80;0.40;;;;;;;11.32;100.00;100740.47;5048820;28;20680;-50
2024/01/25 11:21:48;;;;;;;0.65;0.30;;;;;;;11.36;100.00;100732.25;5048989;28;20056;-52
2024/01/25 11:24:24;;;;;;;1.52;0.40;;;;;;;11.39;100.00;100735.13;5047614;28;20570;-49